Silver Beach, Massachusetts
Current Conditions -  °F | °C
As of 10:15 AM on Wednesday 22 Oct 2014 (Local Time) from KFMH Reporting Station
Haze Haze  
Wind Chill: 57°   Ceiling: 300
Heat Index: 57°   Visibility: 1.2mi
Dew Point: 55°   Wind: 20mph
Humidity: 94%   Direction: 40°NE
Pressure: 29.92"   Gusts: 26mph
Location:  41.64°N, 70.63°W
Report Text: KFMH 221415Z AUTO 04017G23KT 1 1/4SM BR OVC003 14/13 A2992 RMK AO2
Loading
Personal Weather Stations






























Interactive Weather Map
Tropical Storm Tracking
New forecast layout! Learn more

10-Day Weather Forecast

Advertisements
Track Severe Weather on mobile